sensor_id;sensor_type;location;lat;lon;timestamp;P1;durP1;ratioP1;P2;durP2;ratioP2
70487;SDS011;57976;48.174;16.370;2023-09-19T00:01:42;3.20;;;0.70;;
70487;SDS011;57976;48.174;16.370;2023-09-19T00:03:47;1.80;;;0.40;;
70487;SDS011;57976;48.174;16.370;2023-09-19T00:05:52;1.50;;;0.30;;
70487;SDS011;57976;48.174;16.370;2023-09-19T00:07:57;1.90;;;0.40;;
70487;SDS011;57976;48.174;16.370;2023-09-19T00:10:02;1.50;;;0.40;;
70487;SDS011;57976;48.174;16.370;2023-09-19T00:12:08;1.10;;;0.30;;
70487;SDS011;57976;48.174;16.370;2023-09-19T00:14:13;1.60;;;0.30;;
70487;SDS011;57976;48.174;16.370;2023-09-19T00:16:17;1.90;;;0.40;;
70487;SDS011;57976;48.174;16.370;2023-09-19T00:18:22;0.90;;;0.30;;
70487;SDS011;57976;48.174;16.370;2023-09-19T00:20:28;1.50;;;0.30;;
70487;SDS011;57976;48.174;16.370;2023-09-19T00:22:32;1.90;;;0.30;;
70487;SDS011;57976;48.174;16.370;2023-09-19T00:24:37;1.30;;;0.30;;
70487;SDS011;57976;48.174;16.370;2023-09-19T00:26:42;2.60;;;0.30;;
70487;SDS011;57976;48.174;16.370;2023-09-19T00:28:47;2.10;;;0.40;;
70487;SDS011;57976;48.174;16.370;2023-09-19T00:30:55;2.00;;;0.40;;
70487;SDS011;57976;48.174;16.370;2023-09-19T00:33:00;1.70;;;0.40;;
70487;SDS011;57976;48.174;16.370;2023-09-19T00:35:06;1.60;;;0.30;;
70487;SDS011;57976;48.174;16.370;2023-09-19T00:37:11;2.80;;;0.30;;
70487;SDS011;57976;48.174;16.370;2023-09-19T00:39:16;2.30;;;0.40;;
70487;SDS011;57976;48.174;16.370;2023-09-19T00:41:21;1.90;;;0.40;;
70487;SDS011;57976;48.174;16.370;2023-09-19T00:43:27;1.40;;;0.30;;
70487;SDS011;57976;48.174;16.370;2023-09-19T00:45:32;2.10;;;0.30;;
70487;SDS011;57976;48.174;16.370;2023-09-19T00:47:43;1.60;;;0.30;;
70487;SDS011;57976;48.174;16.370;2023-09-19T00:49:50;2.80;;;0.40;;
70487;SDS011;57976;48.174;16.370;2023-09-19T00:51:54;2.10;;;0.40;;
70487;SDS011;57976;48.174;16.370;2023-09-19T00:54:12;1.70;;;0.30;;
70487;SDS011;57976;48.174;16.370;2023-09-19T01:04:31;1.00;;;0.30;;
70487;SDS011;57976;48.174;16.370;2023-09-19T01:06:38;2.00;;;0.40;;
70487;SDS011;57976;48.174;16.370;2023-09-19T01:08:43;1.50;;;0.30;;
70487;SDS011;57976;48.174;16.370;2023-09-19T01:10:51;1.80;;;0.30;;
70487;SDS011;57976;48.174;16.370;2023-09-19T01:13:03;1.80;;;0.20;;
70487;SDS011;57976;48.174;16.370;2023-09-19T01:15:21;2.20;;;0.30;;
70487;SDS011;57976;48.174;16.370;2023-09-19T01:17:32;2.70;;;0.30;;
70487;SDS011;57976;48.174;16.370;2023-09-19T01:20:00;1.60;;;0.30;;
70487;SDS011;57976;48.174;16.370;2023-09-19T01:22:18;1.20;;;0.30;;
70487;SDS011;57976;48.174;16.370;2023-09-19T01:24:39;1.80;;;0.40;;
70487;SDS011;57976;48.174;16.370;2023-09-19T01:27:11;1.50;;;0.30;;
70487;SDS011;57976;48.174;16.370;2023-09-19T01:29:38;1.50;;;0.30;;
70487;SDS011;57976;48.174;16.370;2023-09-19T01:31:45;2.20;;;0.40;;
70487;SDS011;57976;48.174;16.370;2023-09-19T01:33:58;1.80;;;0.20;;
70487;SDS011;57976;48.174;16.370;2023-09-19T01:36:04;1.80;;;0.30;;
70487;SDS011;57976;48.174;16.370;2023-09-19T01:38:09;2.20;;;0.30;;
70487;SDS011;57976;48.174;16.370;2023-09-19T01:40:14;1.60;;;0.40;;
70487;SDS011;57976;48.174;16.370;2023-09-19T01:42:24;1.30;;;0.30;;
70487;SDS011;57976;48.174;16.370;2023-09-19T01:46:59;2.70;;;0.40;;
70487;SDS011;57976;48.174;16.370;2023-09-19T01:49:15;3.10;;;0.30;;
70487;SDS011;57976;48.174;16.370;2023-09-19T01:51:32;3.40;;;0.40;;
70487;SDS011;57976;48.174;16.370;2023-09-19T01:53:43;2.90;;;0.40;;
70487;SDS011;57976;48.174;16.370;2023-09-19T01:55:53;2.70;;;0.40;;
70487;SDS011;57976;48.174;16.370;2023-09-19T01:58:04;1.50;;;0.20;;
70487;SDS011;57976;48.174;16.370;2023-09-19T02:00:18;1.40;;;0.30;;
70487;SDS011;57976;48.174;16.370;2023-09-19T02:02:24;2.60;;;0.30;;
70487;SDS011;57976;48.174;16.370;2023-09-19T02:04:30;3.50;;;0.40;;
70487;SDS011;57976;48.174;16.370;2023-09-19T02:06:37;2.10;;;0.40;;
70487;SDS011;57976;48.174;16.370;2023-09-19T02:08:44;3.20;;;0.40;;
70487;SDS011;57976;48.174;16.370;2023-09-19T02:10:49;2.50;;;0.40;;
70487;SDS011;57976;48.174;16.370;2023-09-19T02:12:54;1.80;;;0.30;;
70487;SDS011;57976;48.174;16.370;2023-09-19T02:15:02;1.50;;;0.30;;
70487;SDS011;57976;48.174;16.370;2023-09-19T02:17:10;2.00;;;0.30;;
70487;SDS011;57976;48.174;16.370;2023-09-19T02:19:15;4.60;;;0.30;;
70487;SDS011;57976;48.174;16.370;2023-09-19T02:21:20;2.80;;;0.40;;
70487;SDS011;57976;48.174;16.370;2023-09-19T02:23:24;2.70;;;0.40;;
70487;SDS011;57976;48.174;16.370;2023-09-19T02:25:29;2.20;;;0.40;;
70487;SDS011;57976;48.174;16.370;2023-09-19T02:27:36;2.10;;;0.40;;
70487;SDS011;57976;48.174;16.370;2023-09-19T02:29:40;4.70;;;0.50;;
70487;SDS011;57976;48.174;16.370;2023-09-19T02:31:45;2.10;;;0.30;;
70487;SDS011;57976;48.174;16.370;2023-09-19T02:33:51;2.50;;;0.30;;
70487;SDS011;57976;48.174;16.370;2023-09-19T02:35:57;1.80;;;0.40;;
70487;SDS011;57976;48.174;16.370;2023-09-19T02:38:02;2.20;;;0.40;;
70487;SDS011;57976;48.174;16.370;2023-09-19T02:40:08;2.60;;;0.40;;
70487;SDS011;57976;48.174;16.370;2023-09-19T02:42:14;2.70;;;0.50;;
70487;SDS011;57976;48.174;16.370;2023-09-19T02:44:19;2.20;;;0.30;;
70487;SDS011;57976;48.174;16.370;2023-09-19T02:46:24;2.00;;;0.30;;
70487;SDS011;57976;48.174;16.370;2023-09-19T02:48:29;2.30;;;0.30;;
70487;SDS011;57976;48.174;16.370;2023-09-19T02:50:34;2.60;;;0.50;;
70487;SDS011;57976;48.174;16.370;2023-09-19T02:52:40;4.00;;;0.20;;
70487;SDS011;57976;48.174;16.370;2023-09-19T02:54:46;1.50;;;0.30;;
70487;SDS011;57976;48.174;16.370;2023-09-19T02:56:51;1.80;;;0.30;;
70487;SDS011;57976;48.174;16.370;2023-09-19T02:58:56;1.60;;;0.20;;
70487;SDS011;57976;48.174;16.370;2023-09-19T03:01:02;3.40;;;0.40;;
70487;SDS011;57976;48.174;16.370;2023-09-19T03:03:12;1.70;;;0.30;;
70487;SDS011;57976;48.174;16.370;2023-09-19T03:05:18;2.10;;;0.30;;
70487;SDS011;57976;48.174;16.370;2023-09-19T03:07:23;2.50;;;0.40;;
70487;SDS011;57976;48.174;16.370;2023-09-19T03:09:31;2.60;;;0.40;;
70487;SDS011;57976;48.174;16.370;2023-09-19T03:11:35;2.00;;;0.50;;
70487;SDS011;57976;48.174;16.370;2023-09-19T03:13:41;2.10;;;0.30;;
70487;SDS011;57976;48.174;16.370;2023-09-19T03:15:46;2.20;;;0.40;;
70487;SDS011;57976;48.174;16.370;2023-09-19T03:17:53;1.80;;;0.30;;
70487;SDS011;57976;48.174;16.370;2023-09-19T03:19:58;4.10;;;0.40;;
70487;SDS011;57976;48.174;16.370;2023-09-19T03:22:03;2.80;;;0.40;;
70487;SDS011;57976;48.174;16.370;2023-09-19T03:24:08;2.20;;;0.50;;
70487;SDS011;57976;48.174;16.370;2023-09-19T03:26:14;3.50;;;0.80;;
70487;SDS011;57976;48.174;16.370;2023-09-19T03:28:19;1.90;;;0.30;;
70487;SDS011;57976;48.174;16.370;2023-09-19T03:30:27;1.80;;;0.40;;
70487;SDS011;57976;48.174;16.370;2023-09-19T03:32:32;3.00;;;0.40;;
70487;SDS011;57976;48.174;16.370;2023-09-19T03:34:37;2.40;;;0.40;;
70487;SDS011;57976;48.174;16.370;2023-09-19T03:36:43;2.80;;;0.50;;
70487;SDS011;57976;48.174;16.370;2023-09-19T03:38:47;2.70;;;0.50;;
70487;SDS011;57976;48.174;16.370;2023-09-19T03:40:52;2.30;;;0.40;;
70487;SDS011;57976;48.174;16.370;2023-09-19T03:42:58;2.00;;;0.40;;
70487;SDS011;57976;48.174;16.370;2023-09-19T03:45:06;2.30;;;0.50;;
70487;SDS011;57976;48.174;16.370;2023-09-19T03:47:11;2.70;;;0.50;;
70487;SDS011;57976;48.174;16.370;2023-09-19T03:49:17;2.80;;;0.60;;
70487;SDS011;57976;48.174;16.370;2023-09-19T03:51:22;2.20;;;0.40;;
70487;SDS011;57976;48.174;16.370;2023-09-19T03:53:27;3.40;;;0.60;;
70487;SDS011;57976;48.174;16.370;2023-09-19T03:55:34;3.30;;;0.50;;
70487;SDS011;57976;48.174;16.370;2023-09-19T03:57:39;2.90;;;0.60;;
70487;SDS011;57976;48.174;16.370;2023-09-19T03:59:44;2.40;;;0.50;;
70487;SDS011;57976;48.174;16.370;2023-09-19T04:01:49;1.90;;;0.60;;
70487;SDS011;57976;48.174;16.370;2023-09-19T04:03:54;3.50;;;0.60;;
70487;SDS011;57976;48.174;16.370;2023-09-19T04:05:59;3.30;;;0.60;;
70487;SDS011;57976;48.174;16.370;2023-09-19T04:08:04;3.30;;;0.60;;
70487;SDS011;57976;48.174;16.370;2023-09-19T04:10:09;3.10;;;0.60;;
70487;SDS011;57976;48.174;16.370;2023-09-19T04:12:14;2.60;;;0.50;;
70487;SDS011;57976;48.174;16.370;2023-09-19T04:14:19;2.70;;;0.60;;
70487;SDS011;57976;48.174;16.370;2023-09-19T04:16:24;4.30;;;0.60;;
70487;SDS011;57976;48.174;16.370;2023-09-19T04:18:31;3.40;;;0.70;;
70487;SDS011;57976;48.174;16.370;2023-09-19T04:20:38;3.70;;;0.60;;
70487;SDS011;57976;48.174;16.370;2023-09-19T04:22:43;3.10;;;0.60;;
70487;SDS011;57976;48.174;16.370;2023-09-19T04:24:48;3.00;;;0.50;;
70487;SDS011;57976;48.174;16.370;2023-09-19T04:26:53;3.10;;;0.70;;
70487;SDS011;57976;48.174;16.370;2023-09-19T04:28:58;3.20;;;0.80;;
70487;SDS011;57976;48.174;16.370;2023-09-19T04:31:03;3.30;;;0.70;;
70487;SDS011;57976;48.174;16.370;2023-09-19T04:33:07;4.00;;;0.80;;
70487;SDS011;57976;48.174;16.370;2023-09-19T04:35:12;3.70;;;0.60;;
70487;SDS011;57976;48.174;16.370;2023-09-19T04:37:20;3.40;;;0.60;;
70487;SDS011;57976;48.174;16.370;2023-09-19T04:39:24;2.60;;;0.60;;
70487;SDS011;57976;48.174;16.370;2023-09-19T04:41:29;3.70;;;0.70;;
70487;SDS011;57976;48.174;16.370;2023-09-19T04:43:34;3.90;;;0.80;;
70487;SDS011;57976;48.174;16.370;2023-09-19T04:45:39;2.60;;;0.70;;
70487;SDS011;57976;48.174;16.370;2023-09-19T04:47:44;3.50;;;0.70;;
70487;SDS011;57976;48.174;16.370;2023-09-19T04:49:48;4.20;;;0.80;;
70487;SDS011;57976;48.174;16.370;2023-09-19T04:51:53;3.20;;;0.80;;
70487;SDS011;57976;48.174;16.370;2023-09-19T04:54:01;3.60;;;0.80;;
70487;SDS011;57976;48.174;16.370;2023-09-19T04:56:06;3.60;;;0.80;;
70487;SDS011;57976;48.174;16.370;2023-09-19T04:58:11;2.80;;;0.70;;
70487;SDS011;57976;48.174;16.370;2023-09-19T05:00:16;2.80;;;0.80;;
70487;SDS011;57976;48.174;16.370;2023-09-19T05:02:22;3.30;;;0.80;;
70487;SDS011;57976;48.174;16.370;2023-09-19T05:04:27;3.10;;;0.80;;
70487;SDS011;57976;48.174;16.370;2023-09-19T05:06:32;3.70;;;0.90;;
70487;SDS011;57976;48.174;16.370;2023-09-19T05:08:37;3.80;;;0.70;;
70487;SDS011;57976;48.174;16.370;2023-09-19T05:10:41;4.50;;;0.70;;
70487;SDS011;57976;48.174;16.370;2023-09-19T05:12:46;4.30;;;1.40;;
70487;SDS011;57976;48.174;16.370;2023-09-19T05:14:51;3.20;;;0.80;;
70487;SDS011;57976;48.174;16.370;2023-09-19T05:16:56;4.60;;;1.00;;
70487;SDS011;57976;48.174;16.370;2023-09-19T05:19:00;4.00;;;1.10;;
70487;SDS011;57976;48.174;16.370;2023-09-19T05:21:05;4.70;;;1.10;;
70487;SDS011;57976;48.174;16.370;2023-09-19T05:23:10;4.70;;;1.00;;
70487;SDS011;57976;48.174;16.370;2023-09-19T05:25:15;5.60;;;1.10;;
70487;SDS011;57976;48.174;16.370;2023-09-19T05:27:20;5.60;;;1.30;;
70487;SDS011;57976;48.174;16.370;2023-09-19T05:29:24;5.60;;;1.10;;
70487;SDS011;57976;48.174;16.370;2023-09-19T05:31:29;3.40;;;0.90;;
70487;SDS011;57976;48.174;16.370;2023-09-19T05:33:34;5.90;;;1.10;;
70487;SDS011;57976;48.174;16.370;2023-09-19T05:35:39;4.50;;;1.10;;
70487;SDS011;57976;48.174;16.370;2023-09-19T05:37:43;3.80;;;1.00;;
70487;SDS011;57976;48.174;16.370;2023-09-19T05:39:48;4.30;;;1.00;;
70487;SDS011;57976;48.174;16.370;2023-09-19T05:41:53;4.90;;;1.00;;
70487;SDS011;57976;48.174;16.370;2023-09-19T05:43:58;4.00;;;1.00;;
70487;SDS011;57976;48.174;16.370;2023-09-19T05:46:06;5.90;;;1.30;;
70487;SDS011;57976;48.174;16.370;2023-09-19T05:48:11;4.50;;;1.00;;
70487;SDS011;57976;48.174;16.370;2023-09-19T05:50:17;5.70;;;1.10;;
70487;SDS011;57976;48.174;16.370;2023-09-19T05:52:21;4.80;;;1.10;;
70487;SDS011;57976;48.174;16.370;2023-09-19T05:54:26;5.40;;;1.30;;
70487;SDS011;57976;48.174;16.370;2023-09-19T05:56:31;4.40;;;1.20;;
70487;SDS011;57976;48.174;16.370;2023-09-19T05:58:36;4.50;;;1.10;;
70487;SDS011;57976;48.174;16.370;2023-09-19T06:00:43;5.00;;;1.20;;
70487;SDS011;57976;48.174;16.370;2023-09-19T06:02:50;5.70;;;1.10;;
70487;SDS011;57976;48.174;16.370;2023-09-19T06:04:55;6.20;;;1.10;;
70487;SDS011;57976;48.174;16.370;2023-09-19T06:07:00;5.40;;;1.20;;
70487;SDS011;57976;48.174;16.370;2023-09-19T06:09:08;5.20;;;0.90;;
70487;SDS011;57976;48.174;16.370;2023-09-19T06:11:13;5.70;;;1.20;;
70487;SDS011;57976;48.174;16.370;2023-09-19T06:13:21;6.20;;;1.20;;
70487;SDS011;57976;48.174;16.370;2023-09-19T06:15:25;4.00;;;1.10;;
70487;SDS011;57976;48.174;16.370;2023-09-19T06:17:30;4.90;;;1.30;;
70487;SDS011;57976;48.174;16.370;2023-09-19T06:19:35;4.80;;;1.30;;
70487;SDS011;57976;48.174;16.370;2023-09-19T06:21:40;5.90;;;1.20;;
70487;SDS011;57976;48.174;16.370;2023-09-19T06:23:44;5.70;;;1.20;;
70487;SDS011;57976;48.174;16.370;2023-09-19T06:25:49;4.90;;;1.20;;
70487;SDS011;57976;48.174;16.370;2023-09-19T06:27:54;6.00;;;1.10;;
70487;SDS011;57976;48.174;16.370;2023-09-19T06:29:59;5.30;;;1.10;;
70487;SDS011;57976;48.174;16.370;2023-09-19T06:32:04;4.50;;;1.40;;
70487;SDS011;57976;48.174;16.370;2023-09-19T06:34:11;4.70;;;1.20;;
70487;SDS011;57976;48.174;16.370;2023-09-19T06:36:16;4.80;;;1.20;;
70487;SDS011;57976;48.174;16.370;2023-09-19T06:38:21;6.00;;;1.10;;
70487;SDS011;57976;48.174;16.370;2023-09-19T06:40:26;5.50;;;1.20;;
70487;SDS011;57976;48.174;16.370;2023-09-19T06:42:34;5.70;;;1.10;;
70487;SDS011;57976;48.174;16.370;2023-09-19T06:44:38;4.40;;;0.90;;
70487;SDS011;57976;48.174;16.370;2023-09-19T06:46:43;4.10;;;1.10;;
70487;SDS011;57976;48.174;16.370;2023-09-19T06:48:48;4.20;;;1.20;;
70487;SDS011;57976;48.174;16.370;2023-09-19T06:50:54;4.30;;;0.90;;
70487;SDS011;57976;48.174;16.370;2023-09-19T06:52:58;5.70;;;1.00;;
70487;SDS011;57976;48.174;16.370;2023-09-19T06:55:04;3.80;;;0.90;;
70487;SDS011;57976;48.174;16.370;2023-09-19T06:57:09;6.20;;;1.10;;
70487;SDS011;57976;48.174;16.370;2023-09-19T06:59:14;3.60;;;0.90;;
70487;SDS011;57976;48.174;16.370;2023-09-19T07:01:18;3.90;;;0.90;;
70487;SDS011;57976;48.174;16.370;2023-09-19T07:03:23;3.90;;;1.00;;
70487;SDS011;57976;48.174;16.370;2023-09-19T07:05:28;4.20;;;0.80;;
70487;SDS011;57976;48.174;16.370;2023-09-19T07:07:33;4.30;;;1.00;;
70487;SDS011;57976;48.174;16.370;2023-09-19T07:09:39;4.20;;;0.90;;
70487;SDS011;57976;48.174;16.370;2023-09-19T07:11:44;3.80;;;0.90;;
70487;SDS011;57976;48.174;16.370;2023-09-19T07:13:48;5.00;;;1.00;;
70487;SDS011;57976;48.174;16.370;2023-09-19T07:15:53;3.90;;;1.00;;
70487;SDS011;57976;48.174;16.370;2023-09-19T07:18:01;4.90;;;1.00;;
70487;SDS011;57976;48.174;16.370;2023-09-19T07:20:06;4.20;;;1.20;;
70487;SDS011;57976;48.174;16.370;2023-09-19T07:22:12;4.50;;;1.00;;
70487;SDS011;57976;48.174;16.370;2023-09-19T07:24:17;4.30;;;0.90;;
70487;SDS011;57976;48.174;16.370;2023-09-19T07:26:21;3.90;;;1.10;;
70487;SDS011;57976;48.174;16.370;2023-09-19T07:28:26;3.80;;;0.90;;
70487;SDS011;57976;48.174;16.370;2023-09-19T07:30:31;5.20;;;1.00;;
70487;SDS011;57976;48.174;16.370;2023-09-19T07:32:38;4.10;;;0.90;;
70487;SDS011;57976;48.174;16.370;2023-09-19T07:34:44;4.00;;;0.90;;
70487;SDS011;57976;48.174;16.370;2023-09-19T07:36:49;3.90;;;0.80;;
70487;SDS011;57976;48.174;16.370;2023-09-19T07:38:54;5.20;;;1.00;;
70487;SDS011;57976;48.174;16.370;2023-09-19T07:41:15;4.70;;;1.10;;
70487;SDS011;57976;48.174;16.370;2023-09-19T07:43:19;5.00;;;0.80;;
70487;SDS011;57976;48.174;16.370;2023-09-19T07:45:24;5.50;;;1.00;;
70487;SDS011;57976;48.174;16.370;2023-09-19T07:47:29;3.70;;;1.10;;
70487;SDS011;57976;48.174;16.370;2023-09-19T07:49:34;5.10;;;1.20;;
70487;SDS011;57976;48.174;16.370;2023-09-19T07:51:39;4.10;;;1.10;;
70487;SDS011;57976;48.174;16.370;2023-09-19T07:53:43;3.50;;;0.90;;
70487;SDS011;57976;48.174;16.370;2023-09-19T07:55:48;5.20;;;0.90;;
70487;SDS011;57976;48.174;16.370;2023-09-19T07:57:53;4.30;;;1.00;;
70487;SDS011;57976;48.174;16.370;2023-09-19T07:59:57;3.90;;;1.10;;
70487;SDS011;57976;48.174;16.370;2023-09-19T08:02:02;4.20;;;1.00;;
70487;SDS011;57976;48.174;16.370;2023-09-19T08:04:07;4.80;;;1.60;;
70487;SDS011;57976;48.174;16.370;2023-09-19T08:06:12;3.80;;;0.90;;
70487;SDS011;57976;48.174;16.370;2023-09-19T08:08:17;3.90;;;1.10;;
70487;SDS011;57976;48.174;16.370;2023-09-19T08:10:22;4.60;;;1.10;;
70487;SDS011;57976;48.174;16.370;2023-09-19T08:12:27;4.50;;;1.20;;
70487;SDS011;57976;48.174;16.370;2023-09-19T08:14:31;3.70;;;1.00;;
70487;SDS011;57976;48.174;16.370;2023-09-19T08:16:36;4.10;;;1.10;;
70487;SDS011;57976;48.174;16.370;2023-09-19T08:18:41;4.70;;;1.00;;
70487;SDS011;57976;48.174;16.370;2023-09-19T08:20:52;4.00;;;1.20;;
70487;SDS011;57976;48.174;16.370;2023-09-19T08:22:57;4.60;;;1.10;;
70487;SDS011;57976;48.174;16.370;2023-09-19T08:25:02;4.60;;;1.10;;
70487;SDS011;57976;48.174;16.370;2023-09-19T08:27:07;4.80;;;1.10;;
70487;SDS011;57976;48.174;16.370;2023-09-19T08:29:12;5.40;;;1.10;;
70487;SDS011;57976;48.174;16.370;2023-09-19T08:31:16;4.70;;;1.20;;
70487;SDS011;57976;48.174;16.370;2023-09-19T08:33:21;4.10;;;1.00;;
70487;SDS011;57976;48.174;16.370;2023-09-19T08:35:26;4.00;;;1.10;;
70487;SDS011;57976;48.174;16.370;2023-09-19T08:37:31;4.10;;;1.00;;
70487;SDS011;57976;48.174;16.370;2023-09-19T08:39:35;3.90;;;1.00;;
70487;SDS011;57976;48.174;16.370;2023-09-19T08:41:40;4.20;;;1.00;;
70487;SDS011;57976;48.174;16.370;2023-09-19T08:43:45;4.10;;;1.00;;
70487;SDS011;57976;48.174;16.370;2023-09-19T08:45:50;4.30;;;1.10;;
70487;SDS011;57976;48.174;16.370;2023-09-19T08:48:03;3.40;;;1.10;;
70487;SDS011;57976;48.174;16.370;2023-09-19T08:50:22;3.80;;;1.10;;
70487;SDS011;57976;48.174;16.370;2023-09-19T08:52:32;4.50;;;1.20;;
70487;SDS011;57976;48.174;16.370;2023-09-19T08:54:43;4.50;;;1.20;;
70487;SDS011;57976;48.174;16.370;2023-09-19T08:56:52;3.90;;;1.00;;
70487;SDS011;57976;48.174;16.370;2023-09-19T08:58:59;3.40;;;1.10;;
70487;SDS011;57976;48.174;16.370;2023-09-19T09:01:05;3.80;;;1.20;;
70487;SDS011;57976;48.174;16.370;2023-09-19T09:03:11;4.00;;;1.10;;
70487;SDS011;57976;48.174;16.370;2023-09-19T09:05:22;4.70;;;1.10;;
70487;SDS011;57976;48.174;16.370;2023-09-19T09:07:28;5.40;;;1.30;;
70487;SDS011;57976;48.174;16.370;2023-09-19T09:09:33;4.60;;;1.00;;
70487;SDS011;57976;48.174;16.370;2023-09-19T09:11:38;4.80;;;1.10;;
70487;SDS011;57976;48.174;16.370;2023-09-19T09:13:43;3.10;;;1.10;;
70487;SDS011;57976;48.174;16.370;2023-09-19T09:15:49;4.30;;;1.00;;
70487;SDS011;57976;48.174;16.370;2023-09-19T09:17:54;4.00;;;1.20;;
70487;SDS011;57976;48.174;16.370;2023-09-19T09:20:01;4.30;;;1.20;;
70487;SDS011;57976;48.174;16.370;2023-09-19T09:22:07;4.30;;;1.20;;
70487;SDS011;57976;48.174;16.370;2023-09-19T09:24:28;3.80;;;1.00;;
70487;SDS011;57976;48.174;16.370;2023-09-19T09:26:43;6.00;;;1.20;;
70487;SDS011;57976;48.174;16.370;2023-09-19T09:28:47;5.90;;;1.00;;
70487;SDS011;57976;48.174;16.370;2023-09-19T09:30:52;6.10;;;1.40;;
70487;SDS011;57976;48.174;16.370;2023-09-19T09:33:07;4.00;;;1.10;;
70487;SDS011;57976;48.174;16.370;2023-09-19T09:35:15;5.10;;;1.50;;
70487;SDS011;57976;48.174;16.370;2023-09-19T09:37:20;5.20;;;1.50;;
70487;SDS011;57976;48.174;16.370;2023-09-19T09:39:31;4.50;;;1.30;;
70487;SDS011;57976;48.174;16.370;2023-09-19T09:41:36;4.70;;;1.20;;
70487;SDS011;57976;48.174;16.370;2023-09-19T09:43:41;4.40;;;1.10;;
70487;SDS011;57976;48.174;16.370;2023-09-19T09:45:46;5.30;;;1.40;;
70487;SDS011;57976;48.174;16.370;2023-09-19T09:48:10;5.10;;;1.30;;
70487;SDS011;57976;48.174;16.370;2023-09-19T09:50:28;4.60;;;1.20;;
70487;SDS011;57976;48.174;16.370;2023-09-19T09:52:37;4.90;;;1.30;;
70487;SDS011;57976;48.174;16.370;2023-09-19T09:54:59;4.00;;;1.30;;
70487;SDS011;57976;48.174;16.370;2023-09-19T09:57:05;4.80;;;1.20;;
70487;SDS011;57976;48.174;16.370;2023-09-19T09:59:11;6.20;;;1.60;;
70487;SDS011;57976;48.174;16.370;2023-09-19T10:01:16;4.40;;;1.40;;
70487;SDS011;57976;48.174;16.370;2023-09-19T10:03:20;3.90;;;1.20;;
70487;SDS011;57976;48.174;16.370;2023-09-19T10:05:33;4.20;;;1.30;;
70487;SDS011;57976;48.174;16.370;2023-09-19T10:07:38;4.10;;;1.30;;
70487;SDS011;57976;48.174;16.370;2023-09-19T10:09:46;4.20;;;1.60;;
70487;SDS011;57976;48.174;16.370;2023-09-19T10:12:03;4.30;;;1.10;;
70487;SDS011;57976;48.174;16.370;2023-09-19T10:14:14;4.00;;;1.10;;
70487;SDS011;57976;48.174;16.370;2023-09-19T10:16:20;3.90;;;1.10;;
70487;SDS011;57976;48.174;16.370;2023-09-19T10:18:27;5.20;;;1.40;;
70487;SDS011;57976;48.174;16.370;2023-09-19T10:20:33;5.40;;;1.20;;
70487;SDS011;57976;48.174;16.370;2023-09-19T10:22:39;6.50;;;1.70;;
70487;SDS011;57976;48.174;16.370;2023-09-19T10:24:44;4.10;;;1.60;;
70487;SDS011;57976;48.174;16.370;2023-09-19T10:27:04;5.40;;;1.60;;
70487;SDS011;57976;48.174;16.370;2023-09-19T10:29:10;6.20;;;1.60;;
70487;SDS011;57976;48.174;16.370;2023-09-19T10:31:19;4.90;;;1.40;;
70487;SDS011;57976;48.174;16.370;2023-09-19T10:33:25;5.30;;;1.50;;
70487;SDS011;57976;48.174;16.370;2023-09-19T10:35:35;4.60;;;1.30;;
70487;SDS011;57976;48.174;16.370;2023-09-19T10:37:42;4.40;;;1.30;;
70487;SDS011;57976;48.174;16.370;2023-09-19T10:39:50;4.60;;;1.40;;
70487;SDS011;57976;48.174;16.370;2023-09-19T10:41:57;4.90;;;1.50;;
70487;SDS011;57976;48.174;16.370;2023-09-19T10:44:05;4.50;;;1.70;;
70487;SDS011;57976;48.174;16.370;2023-09-19T10:46:10;5.70;;;1.80;;
70487;SDS011;57976;48.174;16.370;2023-09-19T10:48:15;6.40;;;1.90;;
70487;SDS011;57976;48.174;16.370;2023-09-19T10:50:20;5.20;;;1.60;;
70487;SDS011;57976;48.174;16.370;2023-09-19T10:52:26;6.00;;;1.90;;
70487;SDS011;57976;48.174;16.370;2023-09-19T10:54:33;5.70;;;1.70;;
70487;SDS011;57976;48.174;16.370;2023-09-19T10:56:42;5.70;;;1.40;;
70487;SDS011;57976;48.174;16.370;2023-09-19T10:58:49;4.60;;;1.50;;
70487;SDS011;57976;48.174;16.370;2023-09-19T11:00:55;5.80;;;1.80;;
70487;SDS011;57976;48.174;16.370;2023-09-19T11:03:19;4.60;;;1.60;;
70487;SDS011;57976;48.174;16.370;2023-09-19T11:05:25;5.20;;;1.50;;
70487;SDS011;57976;48.174;16.370;2023-09-19T11:07:30;5.10;;;1.50;;
70487;SDS011;57976;48.174;16.370;2023-09-19T11:09:58;4.50;;;1.30;;
70487;SDS011;57976;48.174;16.370;2023-09-19T11:12:04;5.40;;;1.40;;
70487;SDS011;57976;48.174;16.370;2023-09-19T11:16:40;4.00;;;1.40;;
70487;SDS011;57976;48.174;16.370;2023-09-19T11:19:24;3.60;;;1.20;;
70487;SDS011;57976;48.174;16.370;2023-09-19T11:22:09;5.70;;;1.50;;
70487;SDS011;57976;48.174;16.370;2023-09-19T11:24:29;4.10;;;1.30;;
70487;SDS011;57976;48.174;16.370;2023-09-19T11:26:41;4.30;;;1.20;;
70487;SDS011;57976;48.174;16.370;2023-09-19T11:28:46;4.30;;;1.40;;
70487;SDS011;57976;48.174;16.370;2023-09-19T11:33:46;3.50;;;1.20;;
70487;SDS011;57976;48.174;16.370;2023-09-19T11:35:59;4.10;;;1.30;;
70487;SDS011;57976;48.174;16.370;2023-09-19T11:38:05;3.60;;;1.30;;
70487;SDS011;57976;48.174;16.370;2023-09-19T11:40:10;3.70;;;1.20;;
70487;SDS011;57976;48.174;16.370;2023-09-19T11:44:46;4.50;;;1.50;;
70487;SDS011;57976;48.174;16.370;2023-09-19T11:46:54;3.90;;;1.30;;
70487;SDS011;57976;48.174;16.370;2023-09-19T11:49:05;3.70;;;1.30;;
70487;SDS011;57976;48.174;16.370;2023-09-19T11:51:18;4.00;;;1.30;;
70487;SDS011;57976;48.174;16.370;2023-09-19T11:53:23;3.50;;;1.40;;
70487;SDS011;57976;48.174;16.370;2023-09-19T11:55:33;3.00;;;1.10;;
70487;SDS011;57976;48.174;16.370;2023-09-19T11:57:39;6.30;;;1.80;;
70487;SDS011;57976;48.174;16.370;2023-09-19T11:59:44;5.60;;;1.70;;
70487;SDS011;57976;48.174;16.370;2023-09-19T12:01:53;4.40;;;1.40;;
70487;SDS011;57976;48.174;16.370;2023-09-19T12:03:59;4.80;;;1.30;;
70487;SDS011;57976;48.174;16.370;2023-09-19T12:06:11;5.00;;;1.40;;
70487;SDS011;57976;48.174;16.370;2023-09-19T12:08:16;4.30;;;1.20;;
70487;SDS011;57976;48.174;16.370;2023-09-19T12:10:21;3.90;;;1.40;;
70487;SDS011;57976;48.174;16.370;2023-09-19T12:12:26;4.50;;;1.30;;
70487;SDS011;57976;48.174;16.370;2023-09-19T12:14:34;3.70;;;1.20;;
70487;SDS011;57976;48.174;16.370;2023-09-19T12:16:39;5.80;;;1.30;;
70487;SDS011;57976;48.174;16.370;2023-09-19T12:18:53;6.30;;;1.50;;
70487;SDS011;57976;48.174;16.370;2023-09-19T12:20:58;3.90;;;1.40;;
70487;SDS011;57976;48.174;16.370;2023-09-19T12:23:06;3.50;;;1.40;;
70487;SDS011;57976;48.174;16.370;2023-09-19T12:25:17;4.50;;;1.20;;
70487;SDS011;57976;48.174;16.370;2023-09-19T12:27:22;4.30;;;1.20;;
70487;SDS011;57976;48.174;16.370;2023-09-19T12:29:26;3.10;;;1.10;;
70487;SDS011;57976;48.174;16.370;2023-09-19T12:31:31;5.00;;;1.40;;
70487;SDS011;57976;48.174;16.370;2023-09-19T12:33:36;6.80;;;1.50;;
70487;SDS011;57976;48.174;16.370;2023-09-19T12:35:42;3.10;;;1.00;;
70487;SDS011;57976;48.174;16.370;2023-09-19T12:37:52;4.60;;;1.20;;
70487;SDS011;57976;48.174;16.370;2023-09-19T12:40:04;4.20;;;1.30;;
70487;SDS011;57976;48.174;16.370;2023-09-19T12:42:11;3.40;;;1.10;;
70487;SDS011;57976;48.174;16.370;2023-09-19T12:44:16;3.10;;;1.10;;
70487;SDS011;57976;48.174;16.370;2023-09-19T12:46:21;3.70;;;1.00;;
70487;SDS011;57976;48.174;16.370;2023-09-19T12:48:31;3.80;;;1.20;;
70487;SDS011;57976;48.174;16.370;2023-09-19T12:50:50;2.80;;;1.00;;
70487;SDS011;57976;48.174;16.370;2023-09-19T12:53:04;3.30;;;1.20;;